createdAt,value
2018-08-04T00:47:13.918Z,96769.22
2018-08-04T00:50:38.621Z,96767.02
2018-08-04T00:54:03.273Z,96765.74
2018-08-04T00:57:27.981Z,96763.05
2018-08-04T01:00:52.627Z,96763.05
2018-08-04T01:04:17.363Z,96769.37
2018-08-04T01:07:42.039Z,96768.06
2018-08-04T01:11:06.979Z,96761.73
2018-08-04T01:14:31.616Z,96762.50
2018-08-04T01:17:56.274Z,96763.53
2018-08-04T01:21:20.950Z,96762.69
2018-08-04T01:24:45.733Z,96764.30
2018-08-04T01:28:10.426Z,96764.70
2018-08-04T01:31:35.063Z,96766.63
2018-08-04T01:34:59.749Z,96762.03
2018-08-04T01:38:24.377Z,96770.63
2018-08-04T01:41:49.033Z,96775.94
2018-08-04T01:45:13.679Z,96768.27
2018-08-04T01:48:38.309Z,96769.76
2018-08-04T01:52:02.954Z,96758.53
2018-08-04T01:55:28.594Z,96764.61
2018-08-04T01:58:53.237Z,96766.62
2018-08-04T02:02:17.884Z,96767.59
2018-08-04T02:05:42.567Z,96762.98
2018-08-04T02:09:09.504Z,96767.28
2018-08-04T02:12:34.139Z,96770.14
2018-08-04T02:15:59.393Z,96759.17
2018-08-04T02:19:23.997Z,96759.95
2018-08-04T02:22:48.655Z,96746.55
2018-08-04T02:26:13.268Z,96746.80
2018-08-04T02:29:37.918Z,96746.45
2018-08-04T02:33:02.604Z,96751.92
2018-08-04T02:36:27.265Z,96753.33
2018-08-04T02:39:52.003Z,96749.61
2018-08-04T02:43:16.686Z,96749.06
2018-08-04T02:46:41.327Z,96753.47
2018-08-04T02:50:07.131Z,96756.19
2018-08-04T02:53:31.806Z,96758.94
2018-08-04T02:56:57.538Z,96759.42
2018-08-04T03:00:22.145Z,96762.80
2018-08-04T03:03:46.755Z,96751.72
2018-08-04T03:07:11.537Z,96754.80
2018-08-04T03:10:36.151Z,96759.60
2018-08-04T03:14:01.606Z,96759.39
2018-08-04T03:17:26.303Z,96761.27
2018-08-04T03:20:50.977Z,96759.32
2018-08-04T03:24:15.591Z,96760.44
2018-08-04T03:27:40.301Z,96763.75
2018-08-04T03:31:04.962Z,96768.03
2018-08-04T03:34:29.620Z,96774.34
2018-08-04T03:37:54.285Z,96773.05
2018-08-04T03:41:18.976Z,96780.30
2018-08-04T03:44:43.688Z,96783.27
2018-08-04T03:48:08.349Z,96776.05
2018-08-04T03:51:32.997Z,96777.37
2018-08-04T03:54:57.643Z,96781.59
2018-08-04T03:58:24.137Z,96776.95
2018-08-04T04:01:48.807Z,96786.45
2018-08-04T04:05:13.484Z,96786.14
2018-08-04T04:08:38.121Z,96781.24
2018-08-04T04:12:02.760Z,96784.37
2018-08-04T04:15:27.441Z,96778.42
2018-08-04T04:18:52.112Z,96784.39
2018-08-04T04:22:16.765Z,96788.23
2018-08-04T04:25:41.505Z,96800.06
2018-08-04T04:29:06.135Z,96803.92
2018-08-04T04:32:31.749Z,96802.72
2018-08-04T04:35:56.426Z,96806.50
2018-08-04T04:39:21.221Z,96804.07
2018-08-04T04:42:46.753Z,96800.80
2018-08-04T04:46:11.393Z,96814.19
2018-08-04T04:49:36.046Z,96805.80
2018-08-04T04:53:00.673Z,96813.78
2018-08-04T04:56:25.346Z,96817.92
2018-08-04T04:59:50.039Z,96815.95
2018-08-04T05:03:14.687Z,96811.36
2018-08-04T05:06:39.333Z,96813.09
2018-08-04T05:10:04.080Z,96808.11
2018-08-04T05:13:28.800Z,96811.42
2018-08-04T05:16:53.489Z,96807.45
2018-08-04T05:20:18.173Z,96810.09
2018-08-04T05:23:42.821Z,96809.58
2018-08-04T05:27:07.597Z,96812.75
2018-08-04T05:30:32.267Z,96821.80
2018-08-04T05:33:56.901Z,96821.97
2018-08-04T05:37:21.582Z,96825.64
2018-08-04T05:40:46.244Z,96830.97
2018-08-04T05:44:10.868Z,96828.75
2018-08-04T05:47:35.581Z,96831.74
2018-08-04T05:51:00.194Z,96828.33
2018-08-04T05:54:24.792Z,96830.80
2018-08-04T05:57:49.443Z,96841.64
2018-08-04T06:01:14.343Z,96842.81
2018-08-04T06:04:39.005Z,96846.94
2018-08-04T06:08:03.844Z,96846.50
2018-08-04T06:11:28.509Z,96850.30
2018-08-04T06:14:53.276Z,96851.02
2018-08-04T06:18:17.957Z,96850.33
2018-08-04T06:21:42.573Z,96857.13
2018-08-04T06:25:07.447Z,96857.00
2018-08-04T06:28:32.348Z,96849.91
2018-08-04T06:31:57.189Z,96846.17
2018-08-04T06:35:21.871Z,96843.84
2018-08-04T06:38:46.691Z,96837.07
2018-08-04T06:42:11.458Z,96838.08
2018-08-04T06:45:36.121Z,96839.23
2018-08-04T06:49:00.852Z,96839.41
2018-08-04T06:52:25.596Z,96838.89
2018-08-04T06:55:50.253Z,96842.38
2018-08-04T06:59:14.937Z,96843.55
2018-08-04T07:02:39.611Z,96841.43
2018-08-04T07:06:05.078Z,96843.41
2018-08-04T07:09:29.711Z,96842.89
2018-08-04T07:12:54.489Z,96847.72
2018-08-04T07:16:19.213Z,96851.33
2018-08-04T07:19:43.876Z,96851.52
2018-08-04T07:23:08.622Z,96846.36
2018-08-04T07:26:33.441Z,96843.68
2018-08-04T07:29:58.207Z,96844.69
2018-08-04T07:33:22.901Z,96847.00
2018-08-04T07:36:47.888Z,96850.61
2018-08-04T07:40:13.188Z,96853.58
2018-08-04T07:43:37.828Z,96847.92
2018-08-04T07:47:02.612Z,96851.45
2018-08-04T07:50:27.404Z,96855.86
2018-08-04T07:53:52.267Z,96856.55
2018-08-04T07:57:17.785Z,96852.85
2018-08-04T08:00:42.519Z,96852.30
2018-08-04T08:13:07.165Z,96851.97
2018-08-04T08:16:32.419Z,96845.07
2018-08-04T08:19:57.101Z,96846.95
2018-08-04T08:36:51.637Z,96839.14
2018-08-04T08:40:16.368Z,96837.48
2018-08-04T08:43:41.128Z,96831.28
2018-08-04T08:47:05.967Z,96834.34
2018-08-04T08:50:30.648Z,96832.80
2018-08-04T08:53:57.556Z,96829.52
2018-08-04T08:57:22.210Z,96826.12
2018-08-04T09:00:46.886Z,96820.22
2018-08-04T09:04:11.530Z,96825.98
2018-08-04T09:07:36.236Z,96831.50
2018-08-04T09:11:00.942Z,96827.31
2018-08-04T09:14:25.630Z,96829.09
2018-08-04T09:17:50.281Z,96826.31
2018-08-04T09:21:14.964Z,96831.70
2018-08-04T09:24:39.629Z,96826.34
2018-08-04T09:28:04.372Z,96826.02
2018-08-04T09:31:29.046Z,96826.46
2018-08-04T09:34:53.727Z,96830.52
2018-08-04T09:38:18.388Z,96824.03
2018-08-04T09:41:43.094Z,96827.59
2018-08-04T09:45:09.056Z,96825.64
2018-08-04T09:48:33.864Z,96817.23
2018-08-04T09:51:58.577Z,96819.08
2018-08-04T09:55:23.322Z,96822.41
2018-08-04T09:58:48.066Z,96812.09
2018-08-04T10:02:13.974Z,96810.88
2018-08-04T10:05:38.623Z,96811.01
2018-08-04T10:09:03.942Z,96815.58
2018-08-04T10:12:28.596Z,96813.66
2018-08-04T10:15:53.275Z,96805.83
2018-08-04T10:19:17.917Z,96798.86
2018-08-04T10:22:42.687Z,96795.77
2018-08-04T10:26:07.500Z,96793.63
2018-08-04T10:29:32.181Z,96779.95
2018-08-04T10:32:56.948Z,96787.77
2018-08-04T10:36:21.707Z,96790.65
2018-08-04T10:39:46.371Z,96780.25
2018-08-04T10:43:11.367Z,96775.16
2018-08-04T10:46:36.119Z,96781.91
2018-08-04T10:50:00.801Z,96776.72
2018-08-04T10:53:25.506Z,96768.28
2018-08-04T10:56:50.172Z,96763.76
2018-08-04T11:00:14.916Z,96763.84
2018-08-04T11:03:39.557Z,96767.03
2018-08-04T11:07:04.410Z,96776.11
2018-08-04T11:10:29.214Z,96782.48
2018-08-04T11:13:54.018Z,96789.52
2018-08-04T11:17:23.058Z,96789.42
2018-08-04T11:20:48.134Z,96781.94
2018-08-04T11:24:13.190Z,96771.16
2018-08-04T11:27:38.089Z,96764.13
2018-08-04T11:31:03.090Z,96757.38
2018-08-04T11:34:28.254Z,96749.01
2018-08-04T11:37:54.397Z,96755.41
2018-08-04T11:41:20.114Z,96764.03
2018-08-04T11:44:46.430Z,96759.64
2018-08-04T11:48:11.781Z,96767.29
2018-08-04T11:51:37.815Z,96766.34
2018-08-04T11:55:02.481Z,96756.01
2018-08-04T11:58:27.156Z,96759.91
2018-08-04T12:01:51.898Z,96743.62
2018-08-04T12:05:16.589Z,96732.48
2018-08-04T12:08:41.279Z,96719.84
2018-08-04T12:12:07.058Z,96710.94
2018-08-04T12:15:32.851Z,96712.21
2018-08-04T12:18:57.784Z,96713.91
2018-08-04T12:22:23.739Z,96711.96
2018-08-04T12:25:48.496Z,96714.39
2018-08-04T12:29:13.546Z,96717.05
2018-08-04T12:32:38.521Z,96710.69
2018-08-04T12:36:04.204Z,96708.16
2018-08-04T12:39:29.499Z,96718.11
2018-08-04T12:42:54.185Z,96716.91
2018-08-04T12:46:19.700Z,96715.64
2018-08-04T12:49:46.432Z,96708.77
2018-08-04T12:53:11.172Z,96716.94
2018-08-04T12:56:35.921Z,96710.78
2018-08-04T13:00:00.762Z,96700.32
2018-08-04T13:03:25.522Z,96698.07
2018-08-04T13:06:50.344Z,96685.57
2018-08-04T13:10:15.059Z,96692.13
2018-08-04T13:13:39.822Z,96696.48
2018-08-04T13:17:05.138Z,96713.06
2018-08-04T13:20:29.976Z,96697.59
2018-08-04T13:23:54.781Z,96696.26
2018-08-04T13:27:19.550Z,96698.92
2018-08-04T13:30:44.247Z,96691.20
2018-08-04T13:34:09.084Z,96688.89
2018-08-04T13:37:33.823Z,96683.88
2018-08-04T13:40:58.584Z,96686.03
2018-08-04T13:44:23.421Z,96704.02
2018-08-04T13:47:48.080Z,96686.21
2018-08-04T13:51:12.930Z,96693.80
2018-08-04T13:54:37.603Z,96692.75
2018-08-04T13:58:02.272Z,96698.88
2018-08-04T14:01:27.282Z,96693.34
2018-08-04T14:04:51.976Z,96683.48
2018-08-04T14:08:16.644Z,96684.19
2018-08-04T14:11:41.287Z,96672.69
2018-08-04T14:15:06.548Z,96678.91
2018-08-04T14:18:31.280Z,96686.56
2018-08-04T14:21:56.084Z,96683.17
2018-08-04T14:25:20.800Z,96681.04
2018-08-04T14:28:45.519Z,96681.64
2018-08-04T14:32:10.160Z,96686.21
2018-08-04T14:35:34.815Z,96692.66
2018-08-04T14:38:59.458Z,96679.75
2018-08-04T14:42:24.224Z,96681.26
2018-08-04T14:45:48.924Z,96677.00
2018-08-04T14:49:13.583Z,96670.69
2018-08-04T14:52:38.280Z,96667.33
2018-08-04T14:56:02.942Z,96673.27
2018-08-04T14:59:27.634Z,96670.77
2018-08-04T15:02:52.446Z,96661.94
2018-08-04T15:06:17.080Z,96664.70
2018-08-04T15:09:41.788Z,96663.20
2018-08-04T15:13:06.504Z,96680.15
2018-08-04T15:16:31.237Z,96675.20
2018-08-04T15:19:55.898Z,96681.02
2018-08-04T15:23:20.549Z,96682.50
2018-08-04T15:26:45.222Z,96691.78
2018-08-04T15:30:09.986Z,96677.53
2018-08-04T15:33:34.720Z,96677.63
2018-08-04T15:36:59.389Z,96669.77
2018-08-04T15:40:24.052Z,96661.34
2018-08-04T15:43:48.776Z,96667.66
2018-08-04T15:47:13.430Z,96662.31
2018-08-04T15:50:38.168Z,96663.17
2018-08-04T15:54:03.134Z,96657.70
2018-08-04T15:57:27.940Z,96668.30
2018-08-04T16:00:52.661Z,96661.13
2018-08-04T16:04:17.345Z,96659.35
2018-08-04T16:07:42.156Z,96662.34
2018-08-04T16:11:07.182Z,96674.08
2018-08-04T16:14:31.850Z,96670.79
2018-08-04T16:17:56.681Z,96670.17
2018-08-04T16:21:21.358Z,96679.64
2018-08-04T16:24:46.166Z,96672.58
2018-08-04T16:28:10.877Z,96683.80
2018-08-04T16:31:35.741Z,96689.23
2018-08-04T16:35:00.440Z,96690.58
2018-08-04T16:38:25.169Z,96686.71
2018-08-04T16:41:49.922Z,96693.58
2018-08-04T16:45:14.549Z,96686.83
2018-08-04T16:48:39.331Z,96681.76
2018-08-04T16:52:04.094Z,96681.11
2018-08-04T16:55:28.719Z,96683.53
2018-08-04T16:58:53.323Z,96685.09
2018-08-04T17:02:18.013Z,96683.09
2018-08-04T17:05:42.716Z,96674.99
2018-08-04T17:09:11.190Z,96686.89
2018-08-04T17:12:35.961Z,96680.55
2018-08-04T17:16:00.608Z,96684.61
2018-08-04T17:19:25.447Z,96689.44
2018-08-04T17:22:50.208Z,96694.81
2018-08-04T17:26:14.931Z,96698.36
2018-08-04T17:29:39.646Z,96706.88
2018-08-04T17:33:04.353Z,96700.74
2018-08-04T17:36:29.040Z,96704.83
2018-08-04T17:39:53.822Z,96702.25
2018-08-04T17:43:18.530Z,96703.00
2018-08-04T17:46:43.314Z,96704.75
2018-08-04T17:50:08.020Z,96709.59
2018-08-04T17:53:32.682Z,96707.83
2018-08-04T17:56:57.388Z,96708.98
2018-08-04T18:00:21.989Z,96708.59
2018-08-04T18:03:46.669Z,96707.16
2018-08-04T18:07:11.480Z,96708.63
2018-08-04T18:10:36.192Z,96707.69
2018-08-04T18:14:00.824Z,96705.89
2018-08-04T18:17:25.462Z,96710.55
2018-08-04T18:20:50.202Z,96717.14
2018-08-04T18:24:14.862Z,96718.05
2018-08-04T18:27:39.567Z,96710.02
2018-08-04T18:31:04.267Z,96718.77
2018-08-04T18:34:29.011Z,96728.44
2018-08-04T18:37:53.785Z,96724.61
2018-08-04T18:41:18.541Z,96736.45
2018-08-04T18:44:43.314Z,96730.11
2018-08-04T18:48:08.066Z,96732.98
2018-08-04T18:51:32.807Z,96739.67
2018-08-04T18:54:57.736Z,96741.30
2018-08-04T18:58:22.393Z,96741.05
2018-08-04T19:01:47.135Z,96739.89
2018-08-04T19:05:11.917Z,96746.65
2018-08-04T19:08:36.653Z,96747.44
2018-08-04T19:12:01.380Z,96748.70
2018-08-04T19:15:26.110Z,96748.76
2018-08-04T19:18:50.951Z,96749.02
2018-08-04T19:22:15.673Z,96746.80
2018-08-04T19:25:40.920Z,96745.37
2018-08-04T19:29:05.658Z,96748.67
2018-08-04T19:32:31.334Z,96742.78
2018-08-04T19:35:56.127Z,96747.99
2018-08-04T19:39:20.803Z,96747.85
2018-08-04T19:42:45.618Z,96754.33
2018-08-04T19:46:10.341Z,96750.58
2018-08-04T19:49:35.106Z,96748.29
2018-08-04T19:52:59.827Z,96746.63
2018-08-04T19:56:24.439Z,96744.45
2018-08-04T19:59:49.155Z,96744.70
2018-08-04T20:03:13.849Z,96748.66
2018-08-04T20:06:38.490Z,96744.14
2018-08-04T20:10:03.253Z,96749.91
2018-08-04T20:13:27.892Z,96748.45
2018-08-04T20:16:52.648Z,96752.46
2018-08-04T20:20:17.539Z,96752.66
2018-08-04T20:23:42.545Z,96756.40
2018-08-04T20:27:08.993Z,96752.13
2018-08-04T20:30:34.018Z,96751.94
2018-08-04T20:33:59.044Z,96748.84
2018-08-04T20:37:23.712Z,96752.20
2018-08-04T20:40:48.444Z,96759.48
2018-08-04T20:44:13.468Z,96760.73
2018-08-04T20:47:38.260Z,96759.95
2018-08-04T20:52:08.486Z,96761.44
2018-08-04T20:55:33.256Z,96755.34
2018-08-04T20:58:57.913Z,96757.13
2018-08-04T21:02:22.597Z,96760.97
2018-08-04T21:05:47.248Z,96759.66
2018-08-04T21:09:11.902Z,96761.34
2018-08-04T21:12:36.637Z,96757.54
2018-08-04T21:16:01.410Z,96763.02
2018-08-04T21:19:26.522Z,96756.78
2018-08-04T21:22:51.471Z,96768.74
2018-08-04T21:26:16.079Z,96768.98
2018-08-04T21:29:40.709Z,96765.11
2018-08-04T21:33:05.476Z,96768.91
2018-08-04T21:36:30.934Z,96772.47
2018-08-04T21:39:55.679Z,96776.25
2018-08-04T21:43:20.517Z,96780.97
2018-08-04T21:46:49.304Z,96768.16
2018-08-04T21:50:13.983Z,96779.42
2018-08-04T21:53:38.770Z,96776.63
2018-08-04T21:57:03.604Z,96772.12
2018-08-04T22:00:28.427Z,96775.41
2018-08-04T22:03:53.148Z,96772.61
2018-08-04T22:08:00.050Z,96777.37
2018-08-04T22:11:24.758Z,96769.39
2018-08-04T22:14:49.428Z,96765.50
2018-08-04T22:18:14.092Z,96764.52
2018-08-04T22:21:38.773Z,96763.84
2018-08-04T22:25:03.452Z,96773.91
2018-08-04T22:28:28.092Z,96759.30
2018-08-04T22:31:52.782Z,96772.23
2018-08-04T22:35:17.508Z,96767.91
2018-08-04T22:38:42.116Z,96765.74
2018-08-04T22:42:07.077Z,96766.34
2018-08-04T22:46:00.700Z,96764.52
2018-08-04T22:49:25.345Z,96767.33
2018-08-04T22:52:50.204Z,96774.41
2018-08-04T22:56:14.828Z,96767.27
2018-08-04T22:59:39.411Z,96770.56
2018-08-04T23:03:04.191Z,96761.45
2018-08-04T23:06:28.830Z,96762.29
2018-08-04T23:09:53.449Z,96770.56
2018-08-04T23:13:18.356Z,96772.58
2018-08-04T23:16:42.980Z,96772.92
2018-08-04T23:20:07.614Z,96773.08
2018-08-04T23:23:32.279Z,96780.21
2018-08-04T23:26:56.897Z,96775.55
2018-08-04T23:30:22.116Z,96774.44
2018-08-04T23:33:46.727Z,96775.27
2018-08-04T23:37:11.272Z,96778.16
2018-08-04T23:40:35.916Z,96773.34
2018-08-04T23:44:00.541Z,96778.53
2018-08-04T23:47:25.172Z,96782.83
2018-08-04T23:50:49.828Z,96784.33
2018-08-04T23:54:14.442Z,96787.98
2018-08-04T23:57:39.096Z,96787.63
